sensor_id;sensor_type;location;lat;lon;timestamp;P1;durP1;ratioP1;P2;durP2;ratioP2
13415;SDS011;6779;50.150;8.680;2023-03-23T00:00:04;2.33;;;2.00;;
13415;SDS011;6779;50.150;8.680;2023-03-23T00:02:31;2.03;;;1.43;;
13415;SDS011;6779;50.150;8.680;2023-03-23T00:05:03;2.73;;;1.57;;
13415;SDS011;6779;50.150;8.680;2023-03-23T00:07:32;1.87;;;1.20;;
13415;SDS011;6779;50.150;8.680;2023-03-23T00:09:58;2.13;;;1.57;;
13415;SDS011;6779;50.150;8.680;2023-03-23T00:12:25;2.67;;;1.77;;
13415;SDS011;6779;50.150;8.680;2023-03-23T00:15:02;3.93;;;1.70;;
13415;SDS011;6779;50.150;8.680;2023-03-23T00:17:28;3.67;;;1.53;;
13415;SDS011;6779;50.150;8.680;2023-03-23T00:19:54;2.20;;;1.20;;
13415;SDS011;6779;50.150;8.680;2023-03-23T00:22:20;1.87;;;1.70;;
13415;SDS011;6779;50.150;8.680;2023-03-23T00:24:47;3.00;;;1.50;;
13415;SDS011;6779;50.150;8.680;2023-03-23T00:27:15;2.03;;;1.50;;
13415;SDS011;6779;50.150;8.680;2023-03-23T00:29:40;1.80;;;1.37;;
13415;SDS011;6779;50.150;8.680;2023-03-23T00:32:07;2.53;;;1.67;;
13415;SDS011;6779;50.150;8.680;2023-03-23T00:34:37;2.00;;;1.33;;
13415;SDS011;6779;50.150;8.680;2023-03-23T00:37:03;2.07;;;1.63;;
13415;SDS011;6779;50.150;8.680;2023-03-23T00:39:28;2.50;;;1.40;;
13415;SDS011;6779;50.150;8.680;2023-03-23T00:41:54;1.00;;;1.00;;
13415;SDS011;6779;50.150;8.680;2023-03-23T00:44:25;1.30;;;1.20;;
13415;SDS011;6779;50.150;8.680;2023-03-23T00:46:55;2.70;;;1.37;;
13415;SDS011;6779;50.150;8.680;2023-03-23T00:49:21;3.40;;;1.20;;
13415;SDS011;6779;50.150;8.680;2023-03-23T00:51:51;1.77;;;1.30;;
13415;SDS011;6779;50.150;8.680;2023-03-23T00:54:17;1.67;;;1.30;;
13415;SDS011;6779;50.150;8.680;2023-03-23T00:56:42;2.00;;;1.30;;
13415;SDS011;6779;50.150;8.680;2023-03-23T00:59:07;4.50;;;1.60;;
13415;SDS011;6779;50.150;8.680;2023-03-23T01:01:33;1.77;;;1.47;;
13415;SDS011;6779;50.150;8.680;2023-03-23T01:03:59;2.23;;;1.30;;
13415;SDS011;6779;50.150;8.680;2023-03-23T01:06:29;1.33;;;1.23;;
13415;SDS011;6779;50.150;8.680;2023-03-23T01:08:57;2.30;;;1.43;;
13415;SDS011;6779;50.150;8.680;2023-03-23T01:11:24;1.93;;;1.20;;
13415;SDS011;6779;50.150;8.680;2023-03-23T01:13:50;2.10;;;1.33;;
13415;SDS011;6779;50.150;8.680;2023-03-23T01:16:16;4.00;;;1.40;;
13415;SDS011;6779;50.150;8.680;2023-03-23T01:18:41;2.13;;;1.40;;
13415;SDS011;6779;50.150;8.680;2023-03-23T01:21:11;2.20;;;1.30;;
13415;SDS011;6779;50.150;8.680;2023-03-23T01:23:37;2.53;;;1.23;;
13415;SDS011;6779;50.150;8.680;2023-03-23T01:26:04;1.30;;;1.20;;
13415;SDS011;6779;50.150;8.680;2023-03-23T01:28:32;3.23;;;1.80;;
13415;SDS011;6779;50.150;8.680;2023-03-23T01:31:01;2.30;;;1.43;;
13415;SDS011;6779;50.150;8.680;2023-03-23T01:33:28;1.77;;;1.10;;
13415;SDS011;6779;50.150;8.680;2023-03-23T01:35:53;2.73;;;1.70;;
13415;SDS011;6779;50.150;8.680;2023-03-23T01:38:18;1.50;;;1.40;;
13415;SDS011;6779;50.150;8.680;2023-03-23T01:40:44;2.90;;;1.40;;
13415;SDS011;6779;50.150;8.680;2023-03-23T01:43:11;1.47;;;1.17;;
13415;SDS011;6779;50.150;8.680;2023-03-23T01:45:38;2.03;;;1.20;;
13415;SDS011;6779;50.150;8.680;2023-03-23T01:48:07;2.10;;;1.90;;
13415;SDS011;6779;50.150;8.680;2023-03-23T01:50:43;1.57;;;1.10;;
13415;SDS011;6779;50.150;8.680;2023-03-23T01:53:21;1.70;;;1.17;;
13415;SDS011;6779;50.150;8.680;2023-03-23T01:55:47;2.47;;;1.70;;
13415;SDS011;6779;50.150;8.680;2023-03-23T01:58:15;1.33;;;1.17;;
13415;SDS011;6779;50.150;8.680;2023-03-23T02:00:42;2.43;;;1.40;;
13415;SDS011;6779;50.150;8.680;2023-03-23T02:03:08;2.40;;;1.20;;
13415;SDS011;6779;50.150;8.680;2023-03-23T02:05:39;1.30;;;1.20;;
13415;SDS011;6779;50.150;8.680;2023-03-23T02:08:06;2.40;;;1.40;;
13415;SDS011;6779;50.150;8.680;2023-03-23T02:10:33;1.13;;;1.00;;
13415;SDS011;6779;50.150;8.680;2023-03-23T02:13:00;1.33;;;1.17;;
13415;SDS011;6779;50.150;8.680;2023-03-23T02:18:45;3.67;;;1.47;;
13415;SDS011;6779;50.150;8.680;2023-03-23T02:21:26;1.53;;;1.30;;
13415;SDS011;6779;50.150;8.680;2023-03-23T02:26:59;2.77;;;1.37;;
13415;SDS011;6779;50.150;8.680;2023-03-23T02:35:05;2.83;;;1.10;;
13415;SDS011;6779;50.150;8.680;2023-03-23T02:37:39;1.90;;;1.50;;
13415;SDS011;6779;50.150;8.680;2023-03-23T02:40:30;1.27;;;1.17;;
13415;SDS011;6779;50.150;8.680;2023-03-23T02:42:58;2.93;;;1.20;;
13415;SDS011;6779;50.150;8.680;2023-03-23T02:45:25;1.33;;;1.20;;
13415;SDS011;6779;50.150;8.680;2023-03-23T02:47:52;1.33;;;1.20;;
13415;SDS011;6779;50.150;8.680;2023-03-23T02:50:19;1.60;;;1.50;;
13415;SDS011;6779;50.150;8.680;2023-03-23T02:52:47;1.30;;;1.20;;
13415;SDS011;6779;50.150;8.680;2023-03-23T02:55:13;3.47;;;1.60;;
13415;SDS011;6779;50.150;8.680;2023-03-23T02:57:39;1.77;;;1.10;;
13415;SDS011;6779;50.150;8.680;2023-03-23T03:00:05;3.17;;;1.30;;
13415;SDS011;6779;50.150;8.680;2023-03-23T03:02:38;1.30;;;1.20;;
13415;SDS011;6779;50.150;8.680;2023-03-23T03:10:37;1.53;;;1.43;;
13415;SDS011;6779;50.150;8.680;2023-03-23T03:15:52;2.63;;;1.70;;
13415;SDS011;6779;50.150;8.680;2023-03-23T03:21:06;3.90;;;3.40;;
13415;SDS011;6779;50.150;8.680;2023-03-23T03:23:33;2.50;;;1.70;;
13415;SDS011;6779;50.150;8.680;2023-03-23T03:25:59;1.73;;;1.60;;
13415;SDS011;6779;50.150;8.680;2023-03-23T03:28:26;2.70;;;1.90;;
13415;SDS011;6779;50.150;8.680;2023-03-23T03:30:53;2.80;;;1.80;;
13415;SDS011;6779;50.150;8.680;2023-03-23T03:33:20;5.40;;;1.90;;
13415;SDS011;6779;50.150;8.680;2023-03-23T03:35:50;1.87;;;1.60;;
13415;SDS011;6779;50.150;8.680;2023-03-23T03:38:17;1.43;;;1.33;;
13415;SDS011;6779;50.150;8.680;2023-03-23T03:40:42;4.27;;;1.77;;
13415;SDS011;6779;50.150;8.680;2023-03-23T03:43:08;1.77;;;1.40;;
13415;SDS011;6779;50.150;8.680;2023-03-23T03:45:33;1.93;;;1.70;;
13415;SDS011;6779;50.150;8.680;2023-03-23T03:47:58;1.80;;;1.70;;
13415;SDS011;6779;50.150;8.680;2023-03-23T03:50:23;1.70;;;1.60;;
13415;SDS011;6779;50.150;8.680;2023-03-23T03:52:49;1.83;;;1.53;;
13415;SDS011;6779;50.150;8.680;2023-03-23T03:55:14;3.57;;;1.70;;
13415;SDS011;6779;50.150;8.680;2023-03-23T03:57:41;1.50;;;1.40;;
13415;SDS011;6779;50.150;8.680;2023-03-23T04:00:08;2.30;;;1.60;;
13415;SDS011;6779;50.150;8.680;2023-03-23T04:02:39;1.67;;;1.50;;
13415;SDS011;6779;50.150;8.680;2023-03-23T04:05:06;1.90;;;1.50;;
13415;SDS011;6779;50.150;8.680;2023-03-23T04:07:32;2.50;;;1.73;;
13415;SDS011;6779;50.150;8.680;2023-03-23T04:09:57;1.77;;;1.57;;
13415;SDS011;6779;50.150;8.680;2023-03-23T04:12:22;2.20;;;1.97;;
13415;SDS011;6779;50.150;8.680;2023-03-23T04:14:47;2.80;;;1.90;;
13415;SDS011;6779;50.150;8.680;2023-03-23T04:17:13;2.70;;;2.37;;
13415;SDS011;6779;50.150;8.680;2023-03-23T04:19:39;2.07;;;1.63;;
13415;SDS011;6779;50.150;8.680;2023-03-23T04:22:05;2.37;;;1.60;;
13415;SDS011;6779;50.150;8.680;2023-03-23T04:24:30;3.80;;;1.87;;
13415;SDS011;6779;50.150;8.680;2023-03-23T04:26:58;3.37;;;1.90;;
13415;SDS011;6779;50.150;8.680;2023-03-23T04:29:24;3.30;;;1.80;;
13415;SDS011;6779;50.150;8.680;2023-03-23T04:31:49;5.33;;;1.90;;
13415;SDS011;6779;50.150;8.680;2023-03-23T04:34:15;3.33;;;1.80;;
13415;SDS011;6779;50.150;8.680;2023-03-23T04:36:41;2.90;;;2.00;;
13415;SDS011;6779;50.150;8.680;2023-03-23T04:39:07;1.80;;;1.70;;
13415;SDS011;6779;50.150;8.680;2023-03-23T04:41:35;2.20;;;1.93;;
13415;SDS011;6779;50.150;8.680;2023-03-23T04:44:01;2.23;;;1.83;;
13415;SDS011;6779;50.150;8.680;2023-03-23T04:46:27;3.47;;;1.93;;
13415;SDS011;6779;50.150;8.680;2023-03-23T04:48:55;1.70;;;1.60;;
13415;SDS011;6779;50.150;8.680;2023-03-23T04:51:23;1.83;;;1.63;;
13415;SDS011;6779;50.150;8.680;2023-03-23T04:53:49;2.37;;;1.73;;
13415;SDS011;6779;50.150;8.680;2023-03-23T04:56:15;3.13;;;1.90;;
13415;SDS011;6779;50.150;8.680;2023-03-23T04:58:40;1.87;;;1.70;;
13415;SDS011;6779;50.150;8.680;2023-03-23T05:01:05;2.23;;;2.03;;
13415;SDS011;6779;50.150;8.680;2023-03-23T05:03:31;5.03;;;2.03;;
13415;SDS011;6779;50.150;8.680;2023-03-23T05:05:56;3.20;;;2.30;;
13415;SDS011;6779;50.150;8.680;2023-03-23T05:08:22;3.87;;;2.87;;
13415;SDS011;6779;50.150;8.680;2023-03-23T05:10:53;3.67;;;2.90;;
13415;SDS011;6779;50.150;8.680;2023-03-23T05:13:19;2.90;;;2.47;;
13415;SDS011;6779;50.150;8.680;2023-03-23T05:15:45;3.70;;;2.30;;
13415;SDS011;6779;50.150;8.680;2023-03-23T05:18:10;3.10;;;2.00;;
13415;SDS011;6779;50.150;8.680;2023-03-23T05:20:37;2.97;;;1.87;;
13415;SDS011;6779;50.150;8.680;2023-03-23T05:23:03;3.63;;;2.00;;
13415;SDS011;6779;50.150;8.680;2023-03-23T05:25:29;2.87;;;1.90;;
13415;SDS011;6779;50.150;8.680;2023-03-23T05:27:54;2.50;;;2.10;;
13415;SDS011;6779;50.150;8.680;2023-03-23T05:30:20;3.53;;;2.23;;
13415;SDS011;6779;50.150;8.680;2023-03-23T05:32:46;3.60;;;2.10;;
13415;SDS011;6779;50.150;8.680;2023-03-23T05:35:15;2.50;;;2.00;;
13415;SDS011;6779;50.150;8.680;2023-03-23T05:37:42;2.20;;;1.90;;
13415;SDS011;6779;50.150;8.680;2023-03-23T05:40:07;2.50;;;2.10;;
13415;SDS011;6779;50.150;8.680;2023-03-23T05:42:33;2.07;;;1.83;;
13415;SDS011;6779;50.150;8.680;2023-03-23T05:44:59;3.10;;;1.90;;
13415;SDS011;6779;50.150;8.680;2023-03-23T05:47:25;2.10;;;1.90;;
13415;SDS011;6779;50.150;8.680;2023-03-23T05:49:51;2.17;;;1.93;;
13415;SDS011;6779;50.150;8.680;2023-03-23T05:52:17;3.30;;;2.53;;
13415;SDS011;6779;50.150;8.680;2023-03-23T05:54:42;2.80;;;1.93;;
13415;SDS011;6779;50.150;8.680;2023-03-23T05:57:08;3.50;;;2.13;;
13415;SDS011;6779;50.150;8.680;2023-03-23T05:59:33;2.43;;;2.00;;
13415;SDS011;6779;50.150;8.680;2023-03-23T06:01:59;2.40;;;2.00;;
13415;SDS011;6779;50.150;8.680;2023-03-23T06:04:24;3.97;;;2.13;;
13415;SDS011;6779;50.150;8.680;2023-03-23T06:06:50;3.10;;;2.13;;
13415;SDS011;6779;50.150;8.680;2023-03-23T06:09:16;2.50;;;2.00;;
13415;SDS011;6779;50.150;8.680;2023-03-23T06:11:42;2.37;;;2.13;;
13415;SDS011;6779;50.150;8.680;2023-03-23T06:14:07;3.07;;;2.37;;
13415;SDS011;6779;50.150;8.680;2023-03-23T06:16:33;2.43;;;2.23;;
13415;SDS011;6779;50.150;8.680;2023-03-23T06:18:58;2.20;;;1.93;;
13415;SDS011;6779;50.150;8.680;2023-03-23T06:21:25;2.80;;;2.17;;
13415;SDS011;6779;50.150;8.680;2023-03-23T06:23:51;3.23;;;2.10;;
13415;SDS011;6779;50.150;8.680;2023-03-23T06:26:16;3.70;;;1.93;;
13415;SDS011;6779;50.150;8.680;2023-03-23T06:28:43;2.37;;;2.07;;
13415;SDS011;6779;50.150;8.680;2023-03-23T06:31:09;3.30;;;2.50;;
13415;SDS011;6779;50.150;8.680;2023-03-23T06:33:34;3.23;;;2.00;;
13415;SDS011;6779;50.150;8.680;2023-03-23T06:36:01;4.20;;;2.23;;
13415;SDS011;6779;50.150;8.680;2023-03-23T06:38:26;2.63;;;2.27;;
13415;SDS011;6779;50.150;8.680;2023-03-23T06:40:52;3.57;;;2.20;;
13415;SDS011;6779;50.150;8.680;2023-03-23T06:43:18;3.27;;;2.00;;
13415;SDS011;6779;50.150;8.680;2023-03-23T06:45:43;2.77;;;1.80;;
13415;SDS011;6779;50.150;8.680;2023-03-23T06:48:09;3.17;;;2.13;;
13415;SDS011;6779;50.150;8.680;2023-03-23T06:50:34;3.83;;;2.27;;
13415;SDS011;6779;50.150;8.680;2023-03-23T06:52:59;3.87;;;2.13;;
13415;SDS011;6779;50.150;8.680;2023-03-23T06:55:25;2.37;;;2.00;;
13415;SDS011;6779;50.150;8.680;2023-03-23T06:57:50;2.30;;;2.10;;
13415;SDS011;6779;50.150;8.680;2023-03-23T07:00:15;2.30;;;2.10;;
13415;SDS011;6779;50.150;8.680;2023-03-23T07:02:41;3.80;;;2.30;;
13415;SDS011;6779;50.150;8.680;2023-03-23T07:05:10;2.40;;;2.20;;
13415;SDS011;6779;50.150;8.680;2023-03-23T07:07:36;4.10;;;2.10;;
13415;SDS011;6779;50.150;8.680;2023-03-23T07:10:06;2.40;;;2.20;;
13415;SDS011;6779;50.150;8.680;2023-03-23T07:12:36;2.90;;;2.30;;
13415;SDS011;6779;50.150;8.680;2023-03-23T07:15:03;2.67;;;2.47;;
13415;SDS011;6779;50.150;8.680;2023-03-23T07:17:29;3.40;;;2.50;;
13415;SDS011;6779;50.150;8.680;2023-03-23T07:19:54;3.60;;;2.30;;
13415;SDS011;6779;50.150;8.680;2023-03-23T07:22:19;2.90;;;2.50;;
13415;SDS011;6779;50.150;8.680;2023-03-23T07:24:45;3.00;;;2.37;;
13415;SDS011;6779;50.150;8.680;2023-03-23T07:27:10;3.60;;;2.50;;
13415;SDS011;6779;50.150;8.680;2023-03-23T07:29:35;4.67;;;2.53;;
13415;SDS011;6779;50.150;8.680;2023-03-23T07:32:03;3.00;;;2.50;;
13415;SDS011;6779;50.150;8.680;2023-03-23T07:34:29;4.47;;;2.43;;
13415;SDS011;6779;50.150;8.680;2023-03-23T07:36:55;3.03;;;2.53;;
13415;SDS011;6779;50.150;8.680;2023-03-23T07:39:20;3.10;;;2.43;;
13415;SDS011;6779;50.150;8.680;2023-03-23T07:41:46;4.03;;;2.57;;
13415;SDS011;6779;50.150;8.680;2023-03-23T07:44:11;4.40;;;2.70;;
13415;SDS011;6779;50.150;8.680;2023-03-23T07:46:36;3.43;;;2.60;;
13415;SDS011;6779;50.150;8.680;2023-03-23T07:49:02;3.10;;;2.37;;
13415;SDS011;6779;50.150;8.680;2023-03-23T07:51:30;3.67;;;2.63;;
13415;SDS011;6779;50.150;8.680;2023-03-23T07:53:55;5.27;;;2.77;;
13415;SDS011;6779;50.150;8.680;2023-03-23T07:56:21;2.57;;;2.33;;
13415;SDS011;6779;50.150;8.680;2023-03-23T07:58:47;3.07;;;2.77;;
13415;SDS011;6779;50.150;8.680;2023-03-23T08:01:13;5.10;;;2.67;;
13415;SDS011;6779;50.150;8.680;2023-03-23T08:03:39;3.50;;;2.73;;
13415;SDS011;6779;50.150;8.680;2023-03-23T08:06:04;3.00;;;2.70;;
13415;SDS011;6779;50.150;8.680;2023-03-23T08:08:30;3.30;;;2.77;;
13415;SDS011;6779;50.150;8.680;2023-03-23T08:10:56;2.80;;;2.57;;
13415;SDS011;6779;50.150;8.680;2023-03-23T08:13:21;3.50;;;2.57;;
13415;SDS011;6779;50.150;8.680;2023-03-23T08:15:47;3.40;;;2.53;;
13415;SDS011;6779;50.150;8.680;2023-03-23T08:18:12;3.60;;;2.10;;
13415;SDS011;6779;50.150;8.680;2023-03-23T08:20:37;3.27;;;2.33;;
13415;SDS011;6779;50.150;8.680;2023-03-23T08:23:03;2.77;;;2.13;;
13415;SDS011;6779;50.150;8.680;2023-03-23T08:25:29;3.10;;;2.20;;
13415;SDS011;6779;50.150;8.680;2023-03-23T08:27:56;3.20;;;2.20;;
13415;SDS011;6779;50.150;8.680;2023-03-23T08:30:22;3.10;;;2.40;;
13415;SDS011;6779;50.150;8.680;2023-03-23T08:32:47;3.50;;;2.20;;
13415;SDS011;6779;50.150;8.680;2023-03-23T08:35:14;2.43;;;2.20;;
13415;SDS011;6779;50.150;8.680;2023-03-23T08:37:40;4.27;;;2.20;;
13415;SDS011;6779;50.150;8.680;2023-03-23T08:40:08;3.17;;;2.20;;
13415;SDS011;6779;50.150;8.680;2023-03-23T08:42:36;3.27;;;2.00;;
13415;SDS011;6779;50.150;8.680;2023-03-23T08:45:02;3.23;;;2.13;;
13415;SDS011;6779;50.150;8.680;2023-03-23T08:47:32;3.23;;;2.43;;
13415;SDS011;6779;50.150;8.680;2023-03-23T08:49:57;3.10;;;2.27;;
13415;SDS011;6779;50.150;8.680;2023-03-23T08:52:23;2.50;;;2.30;;
13415;SDS011;6779;50.150;8.680;2023-03-23T08:54:48;2.77;;;2.23;;
13415;SDS011;6779;50.150;8.680;2023-03-23T08:57:14;3.33;;;2.43;;
13415;SDS011;6779;50.150;8.680;2023-03-23T08:59:40;2.87;;;2.10;;
13415;SDS011;6779;50.150;8.680;2023-03-23T09:02:06;3.67;;;2.23;;
13415;SDS011;6779;50.150;8.680;2023-03-23T09:04:33;3.63;;;2.73;;
13415;SDS011;6779;50.150;8.680;2023-03-23T09:06:59;4.23;;;2.60;;
13415;SDS011;6779;50.150;8.680;2023-03-23T09:09:25;2.87;;;2.10;;
13415;SDS011;6779;50.150;8.680;2023-03-23T09:11:50;2.97;;;2.07;;
13415;SDS011;6779;50.150;8.680;2023-03-23T09:14:18;2.63;;;2.30;;
13415;SDS011;6779;50.150;8.680;2023-03-23T09:16:43;4.60;;;2.20;;
13415;SDS011;6779;50.150;8.680;2023-03-23T09:19:10;4.30;;;2.40;;
13415;SDS011;6779;50.150;8.680;2023-03-23T09:21:35;3.37;;;2.30;;
13415;SDS011;6779;50.150;8.680;2023-03-23T09:24:01;3.33;;;2.30;;
13415;SDS011;6779;50.150;8.680;2023-03-23T09:26:27;3.07;;;2.33;;
13415;SDS011;6779;50.150;8.680;2023-03-23T09:28:52;4.97;;;2.23;;
13415;SDS011;6779;50.150;8.680;2023-03-23T09:31:18;3.73;;;2.23;;
13415;SDS011;6779;50.150;8.680;2023-03-23T09:33:45;2.37;;;2.17;;
13415;SDS011;6779;50.150;8.680;2023-03-23T09:36:11;3.43;;;2.33;;
13415;SDS011;6779;50.150;8.680;2023-03-23T09:38:38;6.13;;;2.77;;
13415;SDS011;6779;50.150;8.680;2023-03-23T09:41:20;3.63;;;2.60;;
13415;SDS011;6779;50.150;8.680;2023-03-23T09:49:21;2.27;;;2.00;;
13415;SDS011;6779;50.150;8.680;2023-03-23T09:51:54;2.20;;;2.00;;
13415;SDS011;6779;50.150;8.680;2023-03-23T09:54:24;2.70;;;2.00;;
13415;SDS011;6779;50.150;8.680;2023-03-23T09:56:52;3.23;;;2.00;;
13415;SDS011;6779;50.150;8.680;2023-03-23T10:02:19;2.60;;;2.20;;
13415;SDS011;6779;50.150;8.680;2023-03-23T10:04:50;2.27;;;2.03;;
13415;SDS011;6779;50.150;8.680;2023-03-23T10:09:46;3.50;;;2.10;;
13415;SDS011;6779;50.150;8.680;2023-03-23T10:12:19;2.13;;;1.90;;
13415;SDS011;6779;50.150;8.680;2023-03-23T10:14:56;2.93;;;2.10;;
13415;SDS011;6779;50.150;8.680;2023-03-23T10:20:13;2.37;;;1.83;;
13415;SDS011;6779;50.150;8.680;2023-03-23T10:22:49;2.80;;;2.30;;
13415;SDS011;6779;50.150;8.680;2023-03-23T10:25:19;2.93;;;2.63;;
13415;SDS011;6779;50.150;8.680;2023-03-23T10:30:19;3.13;;;2.37;;
13415;SDS011;6779;50.150;8.680;2023-03-23T10:33:03;2.70;;;2.10;;
13415;SDS011;6779;50.150;8.680;2023-03-23T10:35:35;3.00;;;1.77;;
13415;SDS011;6779;50.150;8.680;2023-03-23T10:38:06;2.30;;;1.80;;
13415;SDS011;6779;50.150;8.680;2023-03-23T10:40:43;2.77;;;1.77;;
13415;SDS011;6779;50.150;8.680;2023-03-23T10:43:12;1.70;;;1.50;;
13415;SDS011;6779;50.150;8.680;2023-03-23T10:45:38;3.10;;;2.30;;
13415;SDS011;6779;50.150;8.680;2023-03-23T10:48:14;3.10;;;1.53;;
13415;SDS011;6779;50.150;8.680;2023-03-23T10:50:45;2.33;;;2.10;;
13415;SDS011;6779;50.150;8.680;2023-03-23T10:53:19;2.00;;;1.50;;
13415;SDS011;6779;50.150;8.680;2023-03-23T10:55:47;1.97;;;1.53;;
13415;SDS011;6779;50.150;8.680;2023-03-23T10:58:21;2.47;;;1.80;;
13415;SDS011;6779;50.150;8.680;2023-03-23T11:00:53;2.73;;;1.80;;
13415;SDS011;6779;50.150;8.680;2023-03-23T11:05:52;3.97;;;2.73;;
13415;SDS011;6779;50.150;8.680;2023-03-23T11:08:20;2.27;;;1.80;;
13415;SDS011;6779;50.150;8.680;2023-03-23T11:10:48;2.67;;;1.97;;
13415;SDS011;6779;50.150;8.680;2023-03-23T11:13:15;1.97;;;1.67;;
13415;SDS011;6779;50.150;8.680;2023-03-23T11:15:43;3.47;;;2.10;;
13415;SDS011;6779;50.150;8.680;2023-03-23T11:18:12;2.10;;;1.90;;
13415;SDS011;6779;50.150;8.680;2023-03-23T11:20:43;2.83;;;2.40;;
13415;SDS011;6779;50.150;8.680;2023-03-23T11:23:11;2.40;;;2.20;;
13415;SDS011;6779;50.150;8.680;2023-03-23T11:25:53;3.83;;;2.40;;
13415;SDS011;6779;50.150;8.680;2023-03-23T11:28:25;2.27;;;2.10;;
13415;SDS011;6779;50.150;8.680;2023-03-23T11:30:53;2.57;;;1.87;;
13415;SDS011;6779;50.150;8.680;2023-03-23T11:33:19;2.37;;;2.07;;
13415;SDS011;6779;50.150;8.680;2023-03-23T11:35:44;3.07;;;2.10;;
13415;SDS011;6779;50.150;8.680;2023-03-23T11:38:18;2.60;;;2.30;;
13415;SDS011;6779;50.150;8.680;2023-03-23T11:40:48;3.07;;;1.80;;
13415;SDS011;6779;50.150;8.680;2023-03-23T11:43:18;2.27;;;1.80;;
13415;SDS011;6779;50.150;8.680;2023-03-23T11:46:05;2.07;;;1.87;;
13415;SDS011;6779;50.150;8.680;2023-03-23T11:48:40;1.90;;;1.73;;
13415;SDS011;6779;50.150;8.680;2023-03-23T11:54:06;1.40;;;1.30;;
13415;SDS011;6779;50.150;8.680;2023-03-23T11:56:38;1.93;;;1.70;;
13415;SDS011;6779;50.150;8.680;2023-03-23T11:59:12;1.70;;;1.30;;
13415;SDS011;6779;50.150;8.680;2023-03-23T12:12:58;1.87;;;1.30;;
13415;SDS011;6779;50.150;8.680;2023-03-23T12:15:38;1.60;;;1.30;;
13415;SDS011;6779;50.150;8.680;2023-03-23T12:21:32;1.40;;;1.30;;
13415;SDS011;6779;50.150;8.680;2023-03-23T12:26:30;1.73;;;1.30;;
13415;SDS011;6779;50.150;8.680;2023-03-23T12:29:04;1.27;;;1.17;;
13415;SDS011;6779;50.150;8.680;2023-03-23T12:31:42;2.03;;;1.27;;
13415;SDS011;6779;50.150;8.680;2023-03-23T12:34:33;1.30;;;1.20;;
13415;SDS011;6779;50.150;8.680;2023-03-23T12:45:13;1.67;;;1.57;;
13415;SDS011;6779;50.150;8.680;2023-03-23T12:48:03;1.50;;;1.40;;
13415;SDS011;6779;50.150;8.680;2023-03-23T12:50:35;1.77;;;1.40;;
13415;SDS011;6779;50.150;8.680;2023-03-23T12:53:29;1.53;;;1.43;;
13415;SDS011;6779;50.150;8.680;2023-03-23T12:59:15;1.30;;;1.13;;
13415;SDS011;6779;50.150;8.680;2023-03-23T13:01:33;1.80;;;1.30;;
13415;SDS011;6779;50.150;8.680;2023-03-23T13:04:07;2.03;;;1.40;;
13415;SDS011;6779;50.150;8.680;2023-03-23T13:06:36;1.70;;;1.40;;
13415;SDS011;6779;50.150;8.680;2023-03-23T13:11:32;2.87;;;1.27;;
13415;SDS011;6779;50.150;8.680;2023-03-23T13:15:04;2.73;;;1.50;;
13415;SDS011;6779;50.150;8.680;2023-03-23T13:20:13;2.20;;;1.23;;
13415;SDS011;6779;50.150;8.680;2023-03-23T13:25:19;1.53;;;1.40;;
13415;SDS011;6779;50.150;8.680;2023-03-23T13:28:13;1.23;;;1.17;;
13415;SDS011;6779;50.150;8.680;2023-03-23T13:30:40;1.53;;;1.43;;
13415;SDS011;6779;50.150;8.680;2023-03-23T13:33:06;3.60;;;1.60;;
13415;SDS011;6779;50.150;8.680;2023-03-23T13:35:36;1.63;;;1.20;;
13415;SDS011;6779;50.150;8.680;2023-03-23T13:38:10;2.10;;;1.37;;
13415;SDS011;6779;50.150;8.680;2023-03-23T13:40:41;1.80;;;1.27;;
13415;SDS011;6779;50.150;8.680;2023-03-23T13:43:07;2.43;;;1.27;;
13415;SDS011;6779;50.150;8.680;2023-03-23T13:45:42;2.40;;;1.63;;
13415;SDS011;6779;50.150;8.680;2023-03-23T13:50:57;2.00;;;1.40;;
13415;SDS011;6779;50.150;8.680;2023-03-23T13:53:43;2.03;;;1.70;;
13415;SDS011;6779;50.150;8.680;2023-03-23T13:56:20;2.00;;;1.60;;
13415;SDS011;6779;50.150;8.680;2023-03-23T13:58:49;1.20;;;1.10;;
13415;SDS011;6779;50.150;8.680;2023-03-23T14:01:18;1.30;;;1.20;;
13415;SDS011;6779;50.150;8.680;2023-03-23T14:03:48;1.70;;;1.60;;
13415;SDS011;6779;50.150;8.680;2023-03-23T14:06:21;1.53;;;1.40;;
13415;SDS011;6779;50.150;8.680;2023-03-23T14:08:50;2.50;;;1.30;;
13415;SDS011;6779;50.150;8.680;2023-03-23T14:16:44;2.90;;;1.30;;
13415;SDS011;6779;50.150;8.680;2023-03-23T14:19:27;2.00;;;1.60;;
13415;SDS011;6779;50.150;8.680;2023-03-23T14:21:59;3.93;;;1.27;;
13415;SDS011;6779;50.150;8.680;2023-03-23T14:24:30;1.50;;;1.40;;
13415;SDS011;6779;50.150;8.680;2023-03-23T14:27:13;3.00;;;1.60;;
13415;SDS011;6779;50.150;8.680;2023-03-23T14:29:42;2.13;;;1.37;;
13415;SDS011;6779;50.150;8.680;2023-03-23T14:32:10;1.40;;;1.30;;
13415;SDS011;6779;50.150;8.680;2023-03-23T14:34:39;1.73;;;1.50;;
13415;SDS011;6779;50.150;8.680;2023-03-23T14:37:04;1.30;;;1.20;;
13415;SDS011;6779;50.150;8.680;2023-03-23T14:39:33;1.43;;;1.30;;
13415;SDS011;6779;50.150;8.680;2023-03-23T14:42:01;2.47;;;1.47;;
13415;SDS011;6779;50.150;8.680;2023-03-23T14:44:34;4.43;;;1.73;;
13415;SDS011;6779;50.150;8.680;2023-03-23T14:47:02;2.73;;;1.60;;
13415;SDS011;6779;50.150;8.680;2023-03-23T14:49:40;1.90;;;1.40;;
13415;SDS011;6779;50.150;8.680;2023-03-23T14:52:14;2.83;;;1.50;;
13415;SDS011;6779;50.150;8.680;2023-03-23T14:54:41;1.80;;;1.47;;
13415;SDS011;6779;50.150;8.680;2023-03-23T14:57:18;1.70;;;1.60;;
13415;SDS011;6779;50.150;8.680;2023-03-23T14:59:49;1.50;;;1.40;;
13415;SDS011;6779;50.150;8.680;2023-03-23T15:04:43;1.13;;;1.03;;
13415;SDS011;6779;50.150;8.680;2023-03-23T15:07:10;1.40;;;1.30;;
13415;SDS011;6779;50.150;8.680;2023-03-23T15:09:38;4.30;;;1.40;;
13415;SDS011;6779;50.150;8.680;2023-03-23T15:12:05;2.57;;;2.10;;
13415;SDS011;6779;50.150;8.680;2023-03-23T15:14:32;1.47;;;1.37;;
13415;SDS011;6779;50.150;8.680;2023-03-23T15:17:00;2.77;;;1.40;;
13415;SDS011;6779;50.150;8.680;2023-03-23T15:19:33;2.50;;;1.23;;
13415;SDS011;6779;50.150;8.680;2023-03-23T15:22:04;1.80;;;1.40;;
13415;SDS011;6779;50.150;8.680;2023-03-23T15:24:47;2.00;;;1.30;;
13415;SDS011;6779;50.150;8.680;2023-03-23T15:27:27;1.37;;;1.27;;
13415;SDS011;6779;50.150;8.680;2023-03-23T15:29:55;3.63;;;1.80;;
13415;SDS011;6779;50.150;8.680;2023-03-23T15:32:30;1.50;;;1.33;;
13415;SDS011;6779;50.150;8.680;2023-03-23T15:34:57;1.77;;;1.30;;
13415;SDS011;6779;50.150;8.680;2023-03-23T15:39:56;2.53;;;1.50;;
13415;SDS011;6779;50.150;8.680;2023-03-23T15:42:24;1.50;;;1.40;;
13415;SDS011;6779;50.150;8.680;2023-03-23T15:52:58;1.40;;;1.30;;
13415;SDS011;6779;50.150;8.680;2023-03-23T15:55:26;2.20;;;1.30;;
13415;SDS011;6779;50.150;8.680;2023-03-23T15:57:53;1.30;;;1.20;;
13415;SDS011;6779;50.150;8.680;2023-03-23T16:00:21;1.20;;;1.10;;
13415;SDS011;6779;50.150;8.680;2023-03-23T16:02:48;1.67;;;1.30;;
13415;SDS011;6779;50.150;8.680;2023-03-23T16:05:17;2.13;;;1.40;;
13415;SDS011;6779;50.150;8.680;2023-03-23T16:07:42;2.13;;;1.20;;
13415;SDS011;6779;50.150;8.680;2023-03-23T16:10:13;3.17;;;1.57;;
13415;SDS011;6779;50.150;8.680;2023-03-23T16:12:43;2.93;;;1.50;;
13415;SDS011;6779;50.150;8.680;2023-03-23T16:15:08;1.53;;;1.37;;
13415;SDS011;6779;50.150;8.680;2023-03-23T16:17:34;1.40;;;1.30;;
13415;SDS011;6779;50.150;8.680;2023-03-23T16:19:59;1.67;;;1.57;;
13415;SDS011;6779;50.150;8.680;2023-03-23T16:22:24;1.40;;;1.30;;
13415;SDS011;6779;50.150;8.680;2023-03-23T16:24:49;2.40;;;1.60;;
13415;SDS011;6779;50.150;8.680;2023-03-23T16:27:15;2.33;;;1.70;;
13415;SDS011;6779;50.150;8.680;2023-03-23T16:29:41;1.77;;;1.67;;
13415;SDS011;6779;50.150;8.680;2023-03-23T16:32:06;2.13;;;1.53;;
13415;SDS011;6779;50.150;8.680;2023-03-23T16:34:31;4.00;;;1.77;;
13415;SDS011;6779;50.150;8.680;2023-03-23T16:36:59;2.23;;;1.80;;
13415;SDS011;6779;50.150;8.680;2023-03-23T16:39:24;2.43;;;1.57;;
13415;SDS011;6779;50.150;8.680;2023-03-23T16:41:50;1.77;;;1.60;;
13415;SDS011;6779;50.150;8.680;2023-03-23T16:44:15;2.73;;;1.63;;
13415;SDS011;6779;50.150;8.680;2023-03-23T16:46:40;3.30;;;2.10;;
13415;SDS011;6779;50.150;8.680;2023-03-23T16:49:06;1.50;;;1.40;;